createdAt,value
2023-03-21T00:01:50.715Z,81.60
2023-03-21T00:04:18.882Z,81.80
2023-03-21T00:06:47.061Z,81.60
2023-03-21T00:09:18.253Z,82.10
2023-03-21T00:11:46.830Z,82.30
2023-03-21T00:14:19.096Z,82.50
2023-03-21T00:16:53.813Z,82.80
2023-03-21T00:19:23.084Z,83.00
2023-03-21T00:22:06.370Z,83.00
2023-03-21T00:24:36.314Z,83.10
2023-03-21T00:27:29.845Z,84.30
2023-03-21T00:29:52.435Z,84.10
2023-03-21T00:32:21.367Z,84.20
2023-03-21T00:35:34.762Z,84.40
2023-03-21T00:37:41.058Z,84.10
2023-03-21T00:40:25.463Z,84.30
2023-03-21T00:42:55.923Z,85.10
2023-03-21T00:45:23.946Z,84.50
2023-03-21T00:47:54.209Z,84.50
2023-03-21T00:50:22.263Z,84.70
2023-03-21T00:52:50.233Z,85.30
2023-03-21T00:55:18.964Z,85.00
2023-03-21T00:57:50.169Z,85.10
2023-03-21T01:00:25.661Z,85.20
2023-03-21T01:03:14.276Z,85.60
2023-03-21T01:06:04.753Z,85.60
2023-03-21T01:08:50.530Z,86.00
2023-03-21T01:11:21.450Z,85.70
2023-03-21T01:14:07.267Z,86.20
2023-03-21T01:16:37.769Z,86.60
2023-03-21T01:19:09.353Z,87.10
2023-03-21T01:21:43.128Z,87.10
2023-03-21T01:24:11.435Z,86.90
2023-03-21T01:26:39.380Z,86.70
2023-03-21T01:29:07.450Z,87.70
2023-03-21T01:31:35.720Z,87.90
2023-03-21T01:34:04.254Z,87.70
2023-03-21T01:36:32.442Z,87.80
2023-03-21T01:39:07.628Z,87.90
2023-03-21T01:41:43.517Z,88.20
2023-03-21T01:44:27.446Z,88.20
2023-03-21T01:47:12.764Z,88.50
2023-03-21T01:49:49.944Z,89.40
2023-03-21T01:52:39.010Z,88.80
2023-03-21T01:55:21.384Z,89.60
2023-03-21T01:58:06.240Z,89.90
2023-03-21T02:00:45.548Z,89.50
2023-03-21T02:03:36.048Z,90.00
2023-03-21T02:06:38.720Z,89.80
2023-03-21T02:09:28.511Z,90.00
2023-03-21T02:11:57.145Z,90.20
2023-03-21T02:14:30.577Z,90.30
2023-03-21T02:17:25.036Z,90.10
2023-03-21T02:20:13.221Z,90.30
2023-03-21T02:23:05.260Z,90.30
2023-03-21T02:25:54.312Z,90.50
2023-03-21T02:28:28.300Z,90.40
2023-03-21T02:31:05.987Z,90.40
2023-03-21T02:33:55.517Z,90.70
2023-03-21T02:36:36.496Z,91.00
2023-03-21T02:39:05.181Z,91.00
2023-03-21T02:41:46.585Z,91.00
2023-03-21T02:44:34.160Z,91.10
2023-03-21T02:47:06.274Z,91.10
2023-03-21T02:49:47.663Z,91.40
2023-03-21T02:52:35.628Z,91.20
2023-03-21T02:55:14.364Z,91.40
2023-03-21T02:57:52.463Z,91.70
2023-03-21T03:00:23.379Z,91.60
2023-03-21T03:03:02.585Z,91.80
2023-03-21T03:05:41.512Z,91.80
2023-03-21T03:08:09.565Z,91.90
2023-03-21T03:10:44.457Z,92.10
2023-03-21T03:13:28.210Z,92.10
2023-03-21T03:16:05.639Z,91.80
2023-03-21T03:18:33.871Z,92.00
2023-03-21T03:21:11.378Z,92.30
2023-03-21T03:23:50.969Z,92.30
2023-03-21T03:26:24.466Z,92.00
2023-03-21T03:28:55.158Z,92.70
2023-03-21T03:31:33.934Z,92.80
2023-03-21T03:34:05.062Z,92.90
2023-03-21T03:36:39.312Z,92.90
2023-03-21T03:39:14.937Z,92.90
2023-03-21T03:42:07.813Z,93.00
2023-03-21T03:44:41.168Z,93.40
2023-03-21T03:47:17.524Z,93.70
2023-03-21T03:50:02.064Z,94.00
2023-03-21T03:52:35.768Z,94.50
2023-03-21T03:55:12.778Z,94.60
2023-03-21T03:57:48.694Z,95.00
2023-03-21T04:00:17.843Z,95.10
2023-03-21T04:02:46.360Z,95.10
2023-03-21T04:05:23.220Z,95.30
2023-03-21T04:07:51.353Z,96.00
2023-03-21T04:10:26.571Z,96.00
2023-03-21T04:12:55.608Z,96.00
2023-03-21T04:15:38.716Z,96.10
2023-03-21T04:18:14.208Z,96.40
2023-03-21T04:20:42.713Z,96.80
2023-03-21T04:23:11.597Z,96.80
2023-03-21T04:25:55.982Z,97.10
2023-03-21T04:28:40.134Z,97.30
2023-03-21T04:31:28.991Z,97.40
2023-03-21T04:34:10.192Z,97.20
2023-03-21T04:36:47.658Z,97.30
2023-03-21T04:39:17.100Z,97.20
2023-03-21T04:41:48.867Z,97.40
2023-03-21T04:44:17.690Z,97.60
2023-03-21T04:46:47.128Z,97.50
2023-03-21T04:49:15.728Z,97.60
2023-03-21T04:51:45.670Z,96.90
2023-03-21T04:54:18.792Z,97.30
2023-03-21T04:56:46.849Z,97.50
2023-03-21T04:59:16.155Z,97.80
2023-03-21T05:01:45.225Z,97.60
2023-03-21T05:04:14.523Z,97.80
2023-03-21T05:06:45.230Z,97.20
2023-03-21T05:09:13.988Z,97.30
2023-03-21T05:11:42.251Z,97.20
2023-03-21T05:14:15.613Z,97.10
2023-03-21T05:16:45.445Z,96.30
2023-03-21T05:19:18.110Z,95.90
2023-03-21T05:21:47.672Z,96.10
2023-03-21T05:24:21.757Z,95.80
2023-03-21T05:26:50.954Z,96.30
2023-03-21T05:29:21.246Z,95.70
2023-03-21T05:32:02.448Z,95.70
2023-03-21T05:34:31.151Z,96.00
2023-03-21T05:37:00.147Z,95.50
2023-03-21T05:39:38.389Z,94.60
2023-03-21T05:42:13.673Z,94.10
2023-03-21T05:44:41.872Z,94.30
2023-03-21T05:47:12.557Z,94.80
2023-03-21T05:49:45.415Z,95.20
2023-03-21T05:52:16.930Z,94.40
2023-03-21T05:54:46.938Z,94.50
2023-03-21T05:57:16.072Z,94.70
2023-03-21T06:00:14.082Z,93.30
2023-03-21T06:02:44.989Z,92.60
2023-03-21T06:05:48.456Z,92.20
2023-03-21T06:08:24.744Z,92.10
2023-03-21T06:10:52.972Z,91.60
2023-03-21T06:13:20.919Z,91.20
2023-03-21T06:15:49.104Z,90.60
2023-03-21T06:18:20.779Z,90.20
2023-03-21T06:20:57.841Z,90.10
2023-03-21T06:23:25.892Z,88.70
2023-03-21T06:25:54.659Z,88.40
2023-03-21T06:28:27.169Z,88.50
2023-03-21T06:30:55.304Z,85.40
2023-03-21T06:33:26.599Z,83.30
2023-03-21T06:35:56.114Z,81.80
2023-03-21T06:38:24.708Z,81.60
2023-03-21T06:40:53.489Z,80.20
2023-03-21T06:43:23.993Z,79.80
2023-03-21T06:45:52.039Z,77.50
2023-03-21T06:48:20.165Z,74.70
2023-03-21T06:50:52.690Z,74.90
2023-03-21T06:53:25.315Z,71.60
2023-03-21T06:56:14.518Z,70.30
2023-03-21T06:58:43.540Z,72.00
2023-03-21T07:01:19.931Z,73.10
2023-03-21T07:04:02.472Z,72.20
2023-03-21T07:06:31.363Z,70.80
2023-03-21T07:09:00.947Z,69.30
2023-03-21T07:11:29.063Z,65.20
2023-03-21T07:13:58.844Z,63.70
2023-03-21T07:16:27.130Z,64.10
2023-03-21T07:18:55.752Z,62.30
2023-03-21T07:21:23.812Z,58.20
2023-03-21T07:23:55.744Z,61.40
2023-03-21T07:26:23.749Z,59.00
2023-03-21T07:28:51.776Z,55.00
2023-03-21T07:31:20.643Z,53.50
2023-03-21T07:33:49.506Z,53.70
2023-03-21T07:36:17.559Z,51.30
2023-03-21T07:38:46.683Z,51.40
2023-03-21T07:43:44.733Z,54.50
2023-03-21T07:46:12.877Z,58.20
2023-03-21T07:48:40.851Z,56.50
2023-03-21T07:51:08.826Z,58.80
2023-03-21T07:53:36.868Z,57.20
2023-03-21T07:56:04.949Z,56.70
2023-03-21T07:58:34.609Z,57.10
2023-03-21T08:01:02.728Z,54.90
2023-03-21T08:03:32.968Z,53.50
2023-03-21T08:06:04.085Z,53.90
2023-03-21T08:08:32.076Z,53.60
2023-03-21T08:11:00.266Z,51.70
2023-03-21T08:13:28.363Z,52.50
2023-03-21T08:15:56.877Z,53.00
2023-03-21T08:18:24.731Z,51.50
2023-03-21T08:20:56.623Z,52.10
2023-03-21T08:23:25.219Z,50.80
2023-03-21T08:25:54.089Z,48.30
2023-03-21T08:28:23.056Z,45.10
2023-03-21T08:30:51.209Z,44.30
2023-03-21T08:33:19.234Z,43.70
2023-03-21T08:35:49.685Z,44.20
2023-03-21T08:38:20.058Z,46.00
2023-03-21T08:40:48.020Z,44.60
2023-03-21T08:43:16.087Z,42.70
2023-03-21T08:45:43.994Z,40.60
2023-03-21T08:48:12.191Z,42.70
2023-03-21T08:50:40.684Z,41.90
2023-03-21T08:53:08.590Z,42.80
2023-03-21T08:55:36.882Z,43.00
2023-03-21T08:58:05.166Z,42.40
2023-03-21T09:00:33.835Z,42.40
2023-03-21T09:03:01.870Z,43.20
2023-03-21T09:05:30.047Z,44.50
2023-03-21T09:07:58.180Z,45.70
2023-03-21T09:10:26.394Z,45.20
2023-03-21T09:12:55.201Z,44.40
2023-03-21T09:15:25.170Z,45.30
2023-03-21T09:17:54.864Z,45.70
2023-03-21T09:20:27.248Z,44.90
2023-03-21T09:22:55.579Z,43.80
2023-03-21T09:25:24.956Z,42.50
2023-03-21T09:27:54.810Z,42.30
2023-03-21T09:30:26.022Z,41.30
2023-03-21T09:32:56.074Z,40.80
2023-03-21T09:35:25.707Z,40.30
2023-03-21T09:37:54.841Z,39.60
2023-03-21T09:40:40.564Z,38.70
2023-03-21T09:43:09.254Z,38.10
2023-03-21T09:45:41.843Z,38.90
2023-03-21T09:48:17.870Z,38.50
2023-03-21T09:50:48.839Z,37.70
2023-03-21T09:53:25.156Z,37.60
2023-03-21T09:55:54.774Z,37.40
2023-03-21T09:58:41.752Z,37.30
2023-03-21T10:01:22.515Z,37.40
2023-03-21T10:03:54.628Z,35.40
2023-03-21T10:06:29.019Z,36.30
2023-03-21T10:08:58.853Z,35.90
2023-03-21T10:11:28.883Z,37.60
2023-03-21T10:13:58.917Z,36.60
2023-03-21T10:16:32.197Z,37.20
2023-03-21T10:19:03.497Z,37.20
2023-03-21T10:21:59.156Z,38.50
2023-03-21T10:24:26.011Z,38.60
2023-03-21T10:26:55.018Z,38.50
2023-03-21T10:29:26.580Z,37.90
2023-03-21T10:31:55.019Z,37.80
2023-03-21T10:34:25.227Z,37.90
2023-03-21T10:36:53.629Z,38.70
2023-03-21T10:39:25.413Z,37.30
2023-03-21T10:41:53.790Z,36.50
2023-03-21T10:44:22.317Z,35.90
2023-03-21T10:46:55.001Z,36.10
2023-03-21T10:49:27.048Z,36.20
2023-03-21T10:51:57.273Z,36.90
2023-03-21T10:54:32.881Z,37.30
2023-03-21T10:57:09.138Z,37.50
2023-03-21T10:59:40.316Z,37.40
2023-03-21T11:02:14.780Z,38.50
2023-03-21T11:04:46.401Z,39.20
2023-03-21T11:07:15.751Z,38.40
2023-03-21T11:09:53.610Z,37.90
2023-03-21T11:12:40.088Z,38.10
2023-03-21T11:15:34.538Z,37.70
2023-03-21T11:18:14.251Z,38.40
2023-03-21T11:20:49.986Z,39.50
2023-03-21T11:23:20.543Z,40.50
2023-03-21T11:25:52.377Z,40.00
2023-03-21T11:28:22.793Z,40.10
2023-03-21T11:30:55.629Z,39.70
2023-03-21T11:33:28.223Z,39.80
2023-03-21T11:36:00.257Z,40.10
2023-03-21T11:38:32.123Z,40.00
2023-03-21T11:41:02.103Z,40.90
2023-03-21T11:43:33.995Z,40.50
2023-03-21T11:46:04.864Z,41.00
2023-03-21T11:48:43.204Z,40.60
2023-03-21T11:51:15.207Z,40.90
2023-03-21T11:53:43.262Z,40.90
2023-03-21T11:56:16.506Z,41.40
2023-03-21T11:59:03.172Z,41.50
2023-03-21T12:01:35.416Z,40.80
2023-03-21T12:04:04.795Z,41.90
2023-03-21T12:06:40.093Z,41.00
2023-03-21T12:09:11.210Z,42.70
2023-03-21T12:11:39.115Z,40.30
2023-03-21T12:14:07.655Z,40.00
2023-03-21T12:16:49.401Z,40.20
2023-03-21T12:19:34.354Z,40.40
2023-03-21T12:22:08.530Z,42.20
2023-03-21T12:24:39.632Z,41.60
2023-03-21T12:27:25.336Z,42.40
2023-03-21T12:30:13.511Z,42.60
2023-03-21T12:32:58.323Z,42.60
2023-03-21T12:35:29.860Z,42.70
2023-03-21T12:38:13.644Z,43.20
2023-03-21T12:40:59.897Z,43.30
2023-03-21T12:43:55.451Z,43.50
2023-03-21T12:46:29.627Z,43.60
2023-03-21T12:49:19.991Z,42.80
2023-03-21T12:51:48.847Z,42.70
2023-03-21T12:54:29.561Z,42.80
2023-03-21T12:57:03.912Z,42.70
2023-03-21T12:59:50.770Z,42.90
2023-03-21T13:02:22.862Z,43.10
2023-03-21T13:05:01.462Z,43.50
2023-03-21T13:07:31.997Z,43.90
2023-03-21T13:10:02.483Z,43.70
2023-03-21T13:12:45.493Z,43.80
2023-03-21T13:15:27.687Z,43.70
2023-03-21T13:18:04.786Z,43.50
2023-03-21T13:20:55.050Z,43.90
2023-03-21T13:23:23.964Z,43.60
2023-03-21T13:25:54.881Z,43.10
2023-03-21T13:28:30.045Z,42.60
2023-03-21T13:31:16.469Z,42.70
2023-03-21T13:33:46.685Z,43.20
2023-03-21T13:36:22.760Z,42.30
2023-03-21T13:38:52.137Z,42.80
2023-03-21T13:41:31.660Z,43.60
2023-03-21T13:43:59.789Z,42.90
2023-03-21T13:46:32.547Z,42.90
2023-03-21T13:49:10.054Z,43.10
2023-03-21T13:51:41.818Z,43.80
2023-03-21T13:54:16.001Z,44.40
2023-03-21T13:56:51.574Z,44.80
2023-03-21T13:59:35.744Z,44.80
2023-03-21T14:02:09.890Z,45.20
2023-03-21T14:04:53.895Z,46.00
2023-03-21T14:07:31.575Z,45.80
2023-03-21T14:10:06.162Z,45.30
2023-03-21T14:12:40.286Z,46.00
2023-03-21T14:15:17.112Z,46.20
2023-03-21T14:17:51.427Z,46.20
2023-03-21T14:20:21.633Z,46.60
2023-03-21T14:22:49.833Z,46.60
2023-03-21T14:25:19.233Z,46.60
2023-03-21T14:27:52.994Z,46.70
2023-03-21T14:30:23.250Z,47.00
2023-03-21T14:32:51.135Z,46.60
2023-03-21T14:35:21.381Z,47.20
2023-03-21T14:37:50.240Z,47.10
2023-03-21T14:40:25.861Z,47.00
2023-03-21T14:42:54.228Z,47.10
2023-03-21T14:45:23.892Z,47.30
2023-03-21T14:48:18.191Z,48.30
2023-03-21T14:50:50.436Z,47.50
2023-03-21T14:53:23.587Z,48.00
2023-03-21T14:55:55.892Z,47.90
2023-03-21T14:58:24.254Z,48.40
2023-03-21T15:00:53.004Z,48.50
2023-03-21T15:03:22.481Z,49.10
2023-03-21T15:05:50.591Z,49.50
2023-03-21T15:08:19.977Z,49.10
2023-03-21T15:11:08.697Z,49.80
2023-03-21T15:13:38.292Z,50.90
2023-03-21T15:16:06.425Z,51.10
2023-03-21T15:18:35.650Z,51.10
2023-03-21T15:21:05.055Z,50.60
2023-03-21T15:23:39.030Z,50.90
2023-03-21T15:26:08.759Z,51.90
2023-03-21T15:28:36.864Z,51.50
2023-03-21T15:31:05.694Z,52.50
2023-03-21T15:33:33.728Z,52.40
2023-03-21T15:36:04.031Z,52.80
2023-03-21T15:38:35.056Z,52.40
2023-03-21T15:41:21.545Z,53.60
2023-03-21T15:44:09.735Z,54.00
2023-03-21T15:46:48.099Z,53.40
2023-03-21T15:49:16.461Z,54.00
2023-03-21T15:51:53.573Z,54.00
2023-03-21T15:54:25.089Z,53.90
2023-03-21T15:56:55.154Z,53.90
2023-03-21T15:59:25.527Z,54.60
2023-03-21T16:01:53.675Z,54.40
2023-03-21T16:04:23.992Z,55.40
2023-03-21T16:06:59.995Z,55.60
2023-03-21T16:09:28.652Z,55.70
2023-03-21T16:12:00.077Z,56.00
2023-03-21T16:14:28.322Z,56.40
2023-03-21T16:16:57.712Z,57.00
2023-03-21T16:19:28.019Z,57.40
2023-03-21T16:21:55.938Z,57.40
2023-03-21T16:24:24.003Z,57.80
2023-03-21T16:26:52.510Z,57.50
2023-03-21T16:29:20.854Z,58.10
2023-03-21T16:31:51.793Z,58.40
2023-03-21T16:34:19.688Z,58.80
2023-03-21T16:36:50.216Z,58.70
2023-03-21T16:39:26.810Z,58.40
2023-03-21T16:41:54.952Z,58.20
2023-03-21T16:44:23.289Z,59.20
2023-03-21T16:46:51.579Z,59.50
2023-03-21T16:49:27.222Z,59.80
2023-03-21T16:51:56.637Z,60.20
2023-03-21T16:54:24.662Z,60.50
2023-03-21T16:56:53.882Z,60.60
2023-03-21T16:59:22.260Z,61.00
2023-03-21T17:01:50.714Z,61.60
2023-03-21T17:04:19.116Z,61.90
2023-03-21T17:06:49.713Z,62.90
2023-03-21T17:09:19.221Z,62.30
2023-03-21T17:11:50.015Z,62.70
2023-03-21T17:14:18.994Z,63.40
2023-03-21T17:16:46.985Z,63.90
2023-03-21T17:19:20.107Z,64.40
2023-03-21T17:21:48.166Z,64.70
2023-03-21T17:24:16.237Z,65.30
2023-03-21T17:26:46.624Z,65.60
2023-03-21T17:29:14.994Z,65.70
2023-03-21T17:31:47.627Z,66.00
2023-03-21T17:34:18.099Z,66.40
2023-03-21T17:36:47.807Z,66.40
2023-03-21T17:39:21.499Z,67.10
2023-03-21T17:41:50.198Z,67.10
2023-03-21T17:44:19.377Z,67.50
2023-03-21T17:46:51.752Z,67.90
2023-03-21T17:49:22.241Z,67.90
2023-03-21T17:51:50.835Z,68.20
2023-03-21T17:54:18.811Z,68.40
2023-03-21T17:56:47.641Z,68.90
2023-03-21T17:59:17.972Z,69.10
2023-03-21T18:01:46.148Z,69.60
2023-03-21T18:04:14.148Z,69.80
2023-03-21T18:06:45.344Z,69.90
2023-03-21T18:09:13.374Z,70.20
2023-03-21T18:11:41.725Z,70.50
2023-03-21T18:14:17.241Z,70.40
2023-03-21T18:16:47.102Z,70.80
2023-03-21T18:19:15.278Z,71.20
2023-03-21T18:21:46.228Z,71.60
2023-03-21T18:24:14.974Z,71.60
2023-03-21T18:26:43.440Z,71.80
2023-03-21T18:32:07.817Z,72.70
2023-03-21T18:34:37.584Z,73.10
2023-03-21T18:37:07.963Z,73.70
2023-03-21T18:39:37.130Z,73.90
2023-03-21T18:42:06.464Z,74.20
2023-03-21T18:44:39.112Z,74.10
2023-03-21T18:47:07.893Z,74.70
2023-03-21T18:50:10.656Z,75.10
2023-03-21T18:52:27.622Z,75.00
2023-03-21T18:54:55.917Z,75.50
2023-03-21T18:57:39.434Z,75.80
2023-03-21T19:00:17.462Z,76.00
2023-03-21T19:02:48.290Z,76.50
2023-03-21T19:05:18.121Z,76.50
2023-03-21T19:07:49.089Z,76.90
2023-03-21T19:10:20.020Z,77.20
2023-03-21T19:12:50.280Z,78.10
2023-03-21T19:15:19.974Z,77.70
2023-03-21T19:20:37.152Z,77.90
2023-03-21T19:23:09.373Z,78.40
2023-03-21T19:25:40.685Z,78.20
2023-03-21T19:28:08.721Z,78.60
2023-03-21T19:30:39.200Z,78.60
2023-03-21T19:33:07.766Z,78.60
2023-03-21T19:35:37.610Z,79.10
2023-03-21T19:38:05.584Z,78.90
2023-03-21T19:40:33.839Z,79.10
2023-03-21T19:43:18.557Z,79.60
2023-03-21T19:45:49.919Z,79.40
2023-03-21T19:48:17.948Z,79.80
2023-03-21T19:51:20.213Z,81.00
2023-03-21T19:53:34.981Z,79.70
2023-03-21T19:56:04.902Z,80.10
2023-03-21T19:58:38.877Z,80.30
2023-03-21T20:01:06.865Z,80.50
2023-03-21T20:03:35.291Z,80.70
2023-03-21T20:06:05.155Z,80.70
2023-03-21T20:08:50.215Z,81.00
2023-03-21T20:11:21.650Z,81.50
2023-03-21T20:13:50.936Z,82.10
2023-03-21T20:16:20.438Z,81.50
2023-03-21T20:18:49.406Z,82.00
2023-03-21T20:21:22.498Z,81.40
2023-03-21T20:23:55.564Z,81.80
2023-03-21T20:26:23.482Z,82.10
2023-03-21T20:29:21.724Z,82.20
2023-03-21T20:31:45.889Z,82.40
2023-03-21T20:34:14.268Z,82.80
2023-03-21T20:36:43.733Z,82.90
2023-03-21T20:39:12.112Z,83.00
2023-03-21T20:41:40.265Z,83.80
2023-03-21T20:46:57.033Z,83.60
2023-03-21T20:49:25.245Z,83.70
2023-03-21T20:52:51.804Z,84.90
2023-03-21T20:54:43.614Z,83.90
2023-03-21T20:57:11.514Z,83.70
2023-03-21T20:59:41.682Z,84.00
2023-03-21T21:02:10.533Z,85.00
2023-03-21T21:04:52.910Z,84.60
2023-03-21T21:07:28.270Z,85.60
2023-03-21T21:09:56.343Z,84.60
2023-03-21T21:12:28.991Z,84.70
2023-03-21T21:14:57.051Z,85.20
2023-03-21T21:20:17.197Z,85.10
2023-03-21T21:22:58.499Z,85.70
2023-03-21T21:25:29.348Z,85.90
2023-03-21T21:27:57.478Z,85.80
2023-03-21T21:30:25.602Z,86.10
2023-03-21T21:32:54.270Z,86.80
2023-03-21T21:35:22.694Z,86.50
2023-03-21T21:37:51.827Z,86.20
2023-03-21T21:40:23.765Z,86.10
2023-03-21T21:42:52.420Z,86.50
2023-03-21T21:45:20.669Z,86.70
2023-03-21T21:47:48.867Z,87.20
2023-03-21T21:50:17.415Z,87.10
2023-03-21T21:52:53.017Z,86.80
2023-03-21T21:55:21.310Z,87.30
2023-03-21T21:57:51.017Z,87.20
2023-03-21T22:00:20.075Z,87.20
2023-03-21T22:02:48.097Z,87.80
2023-03-21T22:05:19.370Z,88.00
2023-03-21T22:07:47.943Z,88.10
2023-03-21T22:10:16.277Z,88.50
2023-03-21T22:12:46.538Z,88.80
2023-03-21T22:15:14.968Z,88.60
2023-03-21T22:17:42.909Z,89.40
2023-03-21T22:20:12.476Z,89.50
2023-03-21T22:22:41.719Z,89.70
2023-03-21T22:25:10.725Z,89.50
2023-03-21T22:27:38.713Z,89.70
2023-03-21T22:30:08.492Z,90.10
2023-03-21T22:32:37.312Z,90.20
2023-03-21T22:35:05.974Z,90.30
2023-03-21T22:37:35.235Z,90.60
2023-03-21T22:40:05.781Z,90.60
2023-03-21T22:42:33.652Z,90.60
2023-03-21T22:45:02.266Z,90.50
2023-03-21T22:47:30.406Z,90.70
2023-03-21T22:49:58.290Z,91.00
2023-03-21T22:52:26.448Z,90.80
2023-03-21T22:54:54.327Z,90.90
2023-03-21T22:57:22.438Z,91.10
2023-03-21T22:59:50.471Z,91.20
2023-03-21T23:02:18.740Z,91.70
2023-03-21T23:04:49.867Z,91.60
2023-03-21T23:07:17.901Z,91.50
2023-03-21T23:09:48.800Z,91.50
2023-03-21T23:12:17.311Z,91.60
2023-03-21T23:14:45.185Z,91.50
2023-03-21T23:17:13.197Z,91.70
2023-03-21T23:19:41.381Z,91.60
2023-03-21T23:22:09.273Z,92.00
2023-03-21T23:24:37.433Z,92.00
2023-03-21T23:27:05.398Z,92.20
2023-03-21T23:29:33.405Z,92.20
2023-03-21T23:32:01.537Z,92.60
2023-03-21T23:34:32.889Z,92.50
2023-03-21T23:37:01.089Z,92.40
2023-03-21T23:39:29.724Z,92.70
2023-03-21T23:41:59.097Z,92.70
2023-03-21T23:44:27.745Z,92.50
2023-03-21T23:46:56.086Z,92.80
2023-03-21T23:49:24.105Z,92.80
2023-03-21T23:51:52.261Z,92.60
2023-03-21T23:54:20.184Z,92.80
2023-03-21T23:56:48.577Z,92.90
2023-03-21T23:59:16.740Z,93.00
